createdAt,value
2023-04-10T00:00:10.062Z,58.01
2023-04-10T00:02:38.769Z,58.85
2023-04-10T00:05:09.029Z,58.63
2023-04-10T00:07:37.538Z,58.82
2023-04-10T00:10:06.944Z,58.53
2023-04-10T00:12:38.877Z,58.80
2023-04-10T00:15:08.727Z,58.76
2023-04-10T00:17:37.093Z,59.05
2023-04-10T00:20:06.860Z,58.92
2023-04-10T00:22:35.396Z,58.61
2023-04-10T00:25:04.095Z,59.10
2023-04-10T00:27:32.467Z,58.43
2023-04-10T00:30:02.646Z,58.73
2023-04-10T00:32:31.084Z,58.77
2023-04-10T00:34:59.380Z,59.12
2023-04-10T00:37:27.769Z,58.68
2023-04-10T00:39:56.261Z,59.18
2023-04-10T00:42:24.645Z,59.03
2023-04-10T00:44:53.085Z,59.10
2023-04-10T00:47:23.137Z,58.61
2023-04-10T00:49:51.788Z,59.28
2023-04-10T00:52:20.275Z,59.30
2023-04-10T00:54:48.714Z,59.29
2023-04-10T00:57:17.122Z,59.03
2023-04-10T00:59:45.731Z,59.38
2023-04-10T01:02:14.112Z,59.39
2023-04-10T01:04:43.940Z,59.71
2023-04-10T01:07:23.107Z,59.81
2023-04-10T01:10:00.841Z,59.79
2023-04-10T01:12:45.702Z,59.15
2023-04-10T01:15:19.597Z,59.26
2023-04-10T01:17:52.723Z,59.61
2023-04-10T01:20:25.009Z,59.52
2023-04-10T01:23:21.398Z,59.31
2023-04-10T01:25:53.383Z,59.15
2023-04-10T01:28:48.184Z,59.40
2023-04-10T01:31:22.501Z,59.53
2023-04-10T01:33:56.028Z,58.89
2023-04-10T01:36:29.548Z,59.15
2023-04-10T01:38:59.623Z,59.07
2023-04-10T01:41:29.188Z,59.40
2023-04-10T01:44:00.428Z,59.32
2023-04-10T01:46:30.892Z,59.77
2023-04-10T01:49:01.985Z,60.28
2023-04-10T01:51:33.834Z,60.07
2023-04-10T01:54:06.909Z,60.68
2023-04-10T01:56:36.033Z,61.04
2023-04-10T01:59:06.642Z,61.07
2023-04-10T02:01:35.107Z,61.05
2023-04-10T02:04:04.403Z,61.65
2023-04-10T02:06:51.910Z,61.52
2023-04-10T02:09:27.411Z,62.05
2023-04-10T02:12:03.189Z,62.31
2023-04-10T02:14:35.496Z,62.35
2023-04-10T02:17:04.963Z,62.77
2023-04-10T02:19:34.237Z,63.35
2023-04-10T02:22:03.100Z,64.42
2023-04-10T02:24:31.850Z,63.30
2023-04-10T02:27:01.584Z,63.77
2023-04-10T02:29:29.908Z,63.74
2023-04-10T02:31:59.651Z,63.77
2023-04-10T02:34:27.944Z,63.74
2023-04-10T02:36:56.403Z,64.48
2023-04-10T02:39:24.986Z,64.88
2023-04-10T02:41:53.886Z,62.98
2023-04-10T02:44:22.244Z,63.43
2023-04-10T02:46:50.802Z,64.48
2023-04-10T02:49:20.865Z,64.44
2023-04-10T02:51:49.267Z,64.48
2023-04-10T02:54:17.676Z,64.19
2023-04-10T02:56:46.365Z,65.30
2023-04-10T02:59:14.738Z,65.32
2023-04-10T03:01:43.422Z,64.97
2023-04-10T03:04:11.980Z,65.02
2023-04-10T03:06:43.599Z,65.22
2023-04-10T03:09:12.102Z,65.24
2023-04-10T03:11:40.445Z,65.97
2023-04-10T03:14:09.761Z,66.21
2023-04-10T03:16:38.288Z,65.45
2023-04-10T03:19:06.763Z,65.64
2023-04-10T03:21:35.227Z,65.75
2023-04-10T03:24:07.296Z,65.76
2023-04-10T03:26:35.827Z,66.57
2023-04-10T03:29:04.629Z,65.89
2023-04-10T03:31:33.007Z,66.20
2023-04-10T03:34:02.536Z,66.27
2023-04-10T03:36:30.944Z,66.71
2023-04-10T03:38:59.396Z,66.40
2023-04-10T03:41:29.104Z,66.66
2023-04-10T03:43:57.570Z,67.08
2023-04-10T03:46:26.469Z,67.22
2023-04-10T03:48:55.311Z,68.00
2023-04-10T03:51:24.707Z,66.88
2023-04-10T03:53:53.743Z,67.17
2023-04-10T03:56:22.655Z,67.75
2023-04-10T03:58:52.499Z,67.36
2023-04-10T04:01:22.159Z,67.44
2023-04-10T04:04:05.353Z,68.27
2023-04-10T04:06:51.643Z,68.46
2023-04-10T04:09:48.983Z,67.42
2023-04-10T04:12:26.434Z,68.09
2023-04-10T04:15:11.539Z,68.02
2023-04-10T04:18:02.865Z,68.67
2023-04-10T04:20:37.767Z,68.63
2023-04-10T04:23:21.175Z,68.27
2023-04-10T04:26:15.601Z,68.88
2023-04-10T04:29:02.376Z,68.73
2023-04-10T04:31:55.553Z,69.53
2023-04-10T04:34:55.612Z,69.38
2023-04-10T04:37:47.191Z,69.04
2023-04-10T04:40:33.866Z,68.50
2023-04-10T04:43:12.269Z,68.89
2023-04-10T04:46:00.940Z,68.02
2023-04-10T04:48:50.644Z,68.65
2023-04-10T04:51:32.492Z,68.86
2023-04-10T04:54:06.546Z,69.31
2023-04-10T04:56:50.085Z,69.16
2023-04-10T04:59:50.455Z,69.01
2023-04-10T05:02:38.945Z,69.45
2023-04-10T05:05:28.835Z,69.38
2023-04-10T05:08:10.731Z,68.48
2023-04-10T05:11:01.932Z,68.15
2023-04-10T05:13:42.339Z,68.61
2023-04-10T05:16:18.538Z,67.86
2023-04-10T05:19:16.346Z,68.19
2023-04-10T05:22:06.279Z,68.06
2023-04-10T05:24:55.433Z,67.99
2023-04-10T05:27:29.577Z,68.08
2023-04-10T05:30:15.394Z,67.38
2023-04-10T05:33:06.724Z,67.36
2023-04-10T05:35:50.384Z,67.32
2023-04-10T05:38:37.648Z,67.65
2023-04-10T05:41:29.544Z,66.59
2023-04-10T05:44:18.141Z,67.13
2023-04-10T05:47:19.529Z,66.24
2023-04-10T05:49:57.617Z,65.98
2023-04-10T05:52:48.636Z,66.31
2023-04-10T05:55:36.308Z,66.16
2023-04-10T05:58:36.679Z,65.74
2023-04-10T06:01:27.664Z,66.11
2023-04-10T06:04:00.678Z,66.79
2023-04-10T06:06:29.772Z,65.96
2023-04-10T06:08:58.249Z,65.89
2023-04-10T06:11:28.023Z,65.48
2023-04-10T06:13:58.190Z,65.02
2023-04-10T06:16:34.072Z,64.51
2023-04-10T06:19:02.772Z,64.38
2023-04-10T06:21:31.799Z,64.29
2023-04-10T06:24:00.185Z,64.26
2023-04-10T06:26:29.933Z,63.94
2023-04-10T06:28:58.606Z,63.33
2023-04-10T06:31:27.380Z,62.71
2023-04-10T06:33:56.537Z,63.33
2023-04-10T06:36:26.091Z,63.09
2023-04-10T06:39:02.736Z,62.38
2023-04-10T06:41:32.605Z,62.76
2023-04-10T06:44:13.189Z,62.21
2023-04-10T06:46:41.676Z,62.17
2023-04-10T06:49:10.069Z,61.89
2023-04-10T06:51:38.409Z,60.74
2023-04-10T06:54:06.760Z,58.90
2023-04-10T06:56:36.506Z,58.75
2023-04-10T06:59:04.853Z,57.38
2023-04-10T07:01:33.233Z,56.19
2023-04-10T07:04:01.565Z,54.79
2023-04-10T07:06:29.915Z,53.90
2023-04-10T07:08:58.224Z,53.62
2023-04-10T07:11:26.542Z,52.93
2023-04-10T07:13:58.453Z,51.69
2023-04-10T07:16:27.607Z,51.23
2023-04-10T07:18:56.537Z,48.57
2023-04-10T07:21:25.199Z,49.06
2023-04-10T07:23:53.533Z,49.18
2023-04-10T07:26:21.906Z,48.18
2023-04-10T07:28:50.235Z,49.37
2023-04-10T07:31:20.289Z,48.87
2023-04-10T07:33:48.791Z,46.42
2023-04-10T07:36:17.183Z,46.93
2023-04-10T07:38:45.647Z,46.69
2023-04-10T07:41:14.161Z,46.11
2023-04-10T07:43:42.551Z,43.94
2023-04-10T07:46:11.233Z,46.68
2023-04-10T07:48:41.077Z,45.96
2023-04-10T07:51:10.266Z,45.49
2023-04-10T07:53:39.887Z,46.86
2023-04-10T07:56:15.718Z,47.01
2023-04-10T07:58:44.229Z,45.57
2023-04-10T08:01:12.745Z,44.73
2023-04-10T08:03:44.343Z,44.84
2023-04-10T08:06:13.609Z,43.16
2023-04-10T08:08:43.583Z,43.10
2023-04-10T08:11:25.771Z,43.67
2023-04-10T08:13:54.765Z,42.57
2023-04-10T08:16:26.228Z,42.22
2023-04-10T08:18:57.664Z,42.33
2023-04-10T08:21:27.290Z,40.79
2023-04-10T08:23:57.480Z,42.08
2023-04-10T08:26:28.064Z,40.92
2023-04-10T08:28:59.891Z,40.94
2023-04-10T08:31:30.315Z,42.52
2023-04-10T08:34:00.526Z,42.19
2023-04-10T08:36:29.376Z,42.01
2023-04-10T08:38:57.717Z,41.21
2023-04-10T08:41:26.538Z,40.10
2023-04-10T08:43:55.355Z,40.91
2023-04-10T08:46:26.152Z,39.13
2023-04-10T08:49:02.704Z,38.66
2023-04-10T08:51:38.341Z,36.22
2023-04-10T08:54:09.496Z,37.79
2023-04-10T08:56:40.899Z,35.91
2023-04-10T08:59:09.919Z,37.07
2023-04-10T09:01:38.653Z,36.51
2023-04-10T09:04:08.838Z,35.95
2023-04-10T09:06:37.271Z,34.04
2023-04-10T09:09:07.212Z,33.43
2023-04-10T09:12:00.910Z,36.72
2023-04-10T09:14:31.920Z,35.16
2023-04-10T09:17:20.718Z,35.56
2023-04-10T09:19:53.441Z,35.30
2023-04-10T09:22:33.061Z,35.14
2023-04-10T09:25:02.805Z,33.84
2023-04-10T09:27:33.718Z,37.46
2023-04-10T09:30:02.512Z,34.06
2023-04-10T09:32:42.742Z,35.52
2023-04-10T09:35:14.822Z,34.19
2023-04-10T09:37:46.762Z,34.26
2023-04-10T09:40:24.479Z,35.62
2023-04-10T09:42:53.744Z,36.38
2023-04-10T09:45:23.027Z,35.77
2023-04-10T09:48:06.108Z,37.12
2023-04-10T09:50:40.984Z,35.61
2023-04-10T09:53:10.357Z,36.74
2023-04-10T09:55:38.916Z,36.16
2023-04-10T09:58:07.516Z,37.93
2023-04-10T10:00:43.088Z,37.19
2023-04-10T10:03:14.048Z,36.74
2023-04-10T10:05:46.990Z,36.57
2023-04-10T10:08:16.578Z,35.92
2023-04-10T10:10:48.418Z,35.58
2023-04-10T10:13:25.744Z,34.92
2023-04-10T10:16:05.894Z,34.53
2023-04-10T10:18:41.442Z,33.92
2023-04-10T10:21:11.695Z,34.45
2023-04-10T10:23:40.677Z,32.62
2023-04-10T10:26:11.409Z,32.28
2023-04-10T10:28:41.927Z,31.50
2023-04-10T10:31:11.699Z,33.90
2023-04-10T10:33:40.274Z,34.56
2023-04-10T10:36:11.458Z,34.12
2023-04-10T10:38:47.757Z,34.67
2023-04-10T10:41:24.947Z,32.65
2023-04-10T10:44:02.693Z,31.41
2023-04-10T10:46:39.521Z,32.72
2023-04-10T10:49:07.892Z,32.59
2023-04-10T10:51:49.229Z,31.81
2023-04-10T10:54:34.008Z,31.61
2023-04-10T10:57:06.463Z,33.31
2023-04-10T10:59:57.793Z,33.86
2023-04-10T11:02:26.823Z,31.93
2023-04-10T11:04:55.534Z,30.68
2023-04-10T11:08:09.229Z,32.15
2023-04-10T11:11:03.034Z,32.85
2023-04-10T11:13:31.502Z,33.29
2023-04-10T11:16:02.124Z,32.88
2023-04-10T11:19:13.977Z,33.54
2023-04-10T11:22:05.720Z,32.25
2023-04-10T11:25:08.623Z,32.24
2023-04-10T11:27:49.667Z,32.87
2023-04-10T11:30:36.270Z,32.79
2023-04-10T11:33:06.721Z,32.48
2023-04-10T11:35:35.572Z,32.79
2023-04-10T11:38:12.738Z,33.46
2023-04-10T11:41:04.600Z,33.35
2023-04-10T11:43:33.773Z,33.14
2023-04-10T11:46:04.656Z,31.62
2023-04-10T11:48:33.428Z,30.96
2023-04-10T11:51:09.378Z,31.04
2023-04-10T11:53:38.560Z,30.67
2023-04-10T11:56:18.199Z,31.18
2023-04-10T11:58:46.561Z,31.64
2023-04-10T12:01:15.680Z,31.64
2023-04-10T12:03:46.132Z,30.57
2023-04-10T12:06:16.675Z,30.77
2023-04-10T12:08:47.739Z,29.33
2023-04-10T12:11:21.279Z,28.65
2023-04-10T12:13:49.997Z,29.40
2023-04-10T12:16:18.651Z,29.41
2023-04-10T12:18:47.523Z,29.20
2023-04-10T12:21:16.225Z,28.33
2023-04-10T12:23:44.582Z,27.91
2023-04-10T12:26:16.903Z,27.59
2023-04-10T12:28:57.555Z,27.78
2023-04-10T12:31:30.102Z,27.11
2023-04-10T12:33:58.787Z,26.99
2023-04-10T12:36:30.226Z,26.64
2023-04-10T12:38:59.761Z,26.09
2023-04-10T12:41:32.101Z,25.98
2023-04-10T12:44:12.497Z,26.28
2023-04-10T12:46:42.111Z,26.57
2023-04-10T12:49:12.867Z,25.54
2023-04-10T12:51:46.417Z,25.69
2023-04-10T12:54:30.067Z,25.99
2023-04-10T12:57:00.571Z,25.62
2023-04-10T12:59:30.891Z,25.45
2023-04-10T13:01:59.541Z,25.87
2023-04-10T13:04:28.408Z,24.66
2023-04-10T13:06:57.164Z,25.39
2023-04-10T13:09:25.575Z,24.96
2023-04-10T13:11:53.904Z,24.80
2023-04-10T13:14:23.958Z,24.30
2023-04-10T13:16:52.310Z,24.23
2023-04-10T13:19:20.681Z,24.28
2023-04-10T13:21:51.986Z,23.41
2023-04-10T13:24:20.387Z,23.96
2023-04-10T13:26:48.727Z,23.85
2023-04-10T13:29:17.157Z,24.48
2023-04-10T13:31:46.962Z,24.03
2023-04-10T13:34:15.431Z,23.67
2023-04-10T13:36:44.236Z,24.16
2023-04-10T13:39:12.734Z,24.54
2023-04-10T13:41:41.333Z,24.68
2023-04-10T13:44:09.858Z,24.96
2023-04-10T13:46:38.250Z,25.11
2023-04-10T13:49:08.037Z,24.39
2023-04-10T13:51:36.444Z,24.00
2023-04-10T13:54:05.198Z,24.67
2023-04-10T13:56:33.472Z,24.04
2023-04-10T13:59:01.861Z,23.97
2023-04-10T14:01:30.346Z,24.99
2023-04-10T14:03:58.940Z,24.92
2023-04-10T14:06:29.017Z,24.56
2023-04-10T14:08:57.356Z,25.00
2023-04-10T14:11:26.720Z,25.62
2023-04-10T14:13:55.391Z,25.36
2023-04-10T14:16:23.832Z,24.81
2023-04-10T14:18:52.259Z,24.67
2023-04-10T14:21:20.899Z,23.51
2023-04-10T14:23:50.688Z,23.29
2023-04-10T14:26:19.103Z,24.25
2023-04-10T14:28:47.713Z,25.85
2023-04-10T14:31:16.229Z,25.43
2023-04-10T14:33:44.737Z,25.63
2023-04-10T14:36:13.159Z,26.07
2023-04-10T14:38:41.604Z,25.44
2023-04-10T14:41:11.649Z,26.24
2023-04-10T14:43:40.048Z,25.58
2023-04-10T14:46:08.760Z,25.64
2023-04-10T14:48:37.193Z,24.61
2023-04-10T14:51:12.657Z,25.42
2023-04-10T14:53:42.326Z,25.39
2023-04-10T14:56:15.931Z,25.20
2023-04-10T14:58:44.876Z,25.30
2023-04-10T15:01:13.909Z,25.01
2023-04-10T15:03:42.329Z,25.73
2023-04-10T15:06:10.937Z,25.56
2023-04-10T15:08:39.336Z,25.47
2023-04-10T15:11:07.989Z,25.12
2023-04-10T15:13:39.494Z,25.60
2023-04-10T15:16:09.174Z,26.16
2023-04-10T15:18:37.584Z,25.71
2023-04-10T15:21:07.121Z,25.85
2023-04-10T15:23:35.548Z,25.72
2023-04-10T15:26:03.893Z,24.01
2023-04-10T15:28:32.215Z,23.71
2023-04-10T15:31:01.957Z,23.24
2023-04-10T15:33:30.369Z,23.48
2023-04-10T15:35:58.770Z,23.98
2023-04-10T15:38:28.765Z,24.07
2023-04-10T15:40:57.435Z,24.27
2023-04-10T15:43:25.732Z,23.86
2023-04-10T15:45:54.103Z,23.78
2023-04-10T15:48:24.718Z,23.95
2023-04-10T15:50:53.122Z,23.70
2023-04-10T15:53:21.518Z,23.97
2023-04-10T15:55:49.862Z,23.86
2023-04-10T15:58:18.234Z,23.31
2023-04-10T16:00:46.654Z,23.82
2023-04-10T16:03:15.370Z,23.46
2023-04-10T16:05:45.309Z,24.23
2023-04-10T16:08:13.681Z,24.47
2023-04-10T16:10:42.021Z,23.63
2023-04-10T16:13:10.365Z,23.95
2023-04-10T16:15:40.587Z,23.89
2023-04-10T16:18:09.412Z,24.42
2023-04-10T16:20:38.506Z,24.21
2023-04-10T16:23:08.449Z,24.46
2023-04-10T16:25:36.868Z,24.73
2023-04-10T16:28:07.885Z,25.01
2023-04-10T16:30:36.605Z,25.03
2023-04-10T16:33:05.206Z,25.32
2023-04-10T16:35:33.677Z,25.66
2023-04-10T16:38:02.110Z,25.49
2023-04-10T16:40:33.225Z,25.80
2023-04-10T16:43:01.990Z,25.90
2023-04-10T16:45:30.751Z,25.57
2023-04-10T16:47:59.187Z,26.30
2023-04-10T16:50:27.607Z,26.08
2023-04-10T16:52:56.005Z,25.93
2023-04-10T16:55:24.333Z,27.12
2023-04-10T16:57:54.051Z,26.58
2023-04-10T17:00:22.813Z,26.25
2023-04-10T17:02:51.134Z,26.55
2023-04-10T17:05:19.640Z,26.58
2023-04-10T17:07:48.157Z,26.31
2023-04-10T17:10:16.777Z,27.33
2023-04-10T17:12:45.870Z,27.10
2023-04-10T17:15:15.874Z,27.39
2023-04-10T17:17:44.307Z,28.12
2023-04-10T17:20:17.206Z,27.74
2023-04-10T17:22:46.163Z,28.35
2023-04-10T17:25:14.779Z,28.76
2023-04-10T17:27:43.222Z,28.90
2023-04-10T17:30:15.381Z,29.64
2023-04-10T17:32:43.833Z,29.62
2023-04-10T17:35:12.261Z,30.21
2023-04-10T17:37:40.634Z,30.41
2023-04-10T17:40:12.055Z,30.92
2023-04-10T17:42:40.427Z,30.74
2023-04-10T17:45:09.776Z,31.00
2023-04-10T17:47:40.079Z,31.99
2023-04-10T17:50:10.647Z,31.75
2023-04-10T17:52:39.130Z,31.55
2023-04-10T17:55:08.808Z,31.75
2023-04-10T17:57:37.133Z,32.03
2023-04-10T18:00:09.794Z,32.50
2023-04-10T18:02:39.876Z,32.40
2023-04-10T18:05:09.198Z,32.71
2023-04-10T18:07:38.005Z,32.91
2023-04-10T18:10:09.675Z,32.54
2023-04-10T18:12:39.339Z,32.68
2023-04-10T18:15:09.542Z,32.89
2023-04-10T18:17:39.580Z,33.02
2023-04-10T18:20:08.720Z,32.69
2023-04-10T18:22:37.113Z,33.09
2023-04-10T18:25:06.405Z,33.05
2023-04-10T18:27:35.975Z,32.90
2023-04-10T18:30:04.599Z,32.85
2023-04-10T18:32:33.098Z,32.65
2023-04-10T18:35:03.671Z,32.85
2023-04-10T18:37:32.361Z,32.63
2023-04-10T18:40:06.392Z,33.14
2023-04-10T18:42:42.089Z,33.23
2023-04-10T18:45:13.055Z,33.11
2023-04-10T18:47:41.577Z,33.01
2023-04-10T18:50:12.188Z,33.31
2023-04-10T18:52:40.612Z,33.28
2023-04-10T18:55:09.934Z,33.50
2023-04-10T18:57:38.297Z,33.61
2023-04-10T19:00:08.372Z,33.73
2023-04-10T19:02:37.043Z,34.36
2023-04-10T19:05:06.167Z,34.16
2023-04-10T19:07:35.964Z,34.52
2023-04-10T19:10:04.416Z,34.51
2023-04-10T19:12:35.096Z,34.84
2023-04-10T19:15:05.267Z,34.45
2023-04-10T19:17:33.695Z,34.60
2023-04-10T19:20:02.634Z,34.63
2023-04-10T19:22:32.867Z,35.11
2023-04-10T19:25:02.626Z,35.30
2023-04-10T19:27:31.138Z,35.21
2023-04-10T19:29:59.496Z,35.37
2023-04-10T19:32:27.816Z,35.25
2023-04-10T19:34:56.418Z,35.41
2023-04-10T19:37:24.712Z,35.14
2023-04-10T19:39:53.092Z,35.51
2023-04-10T19:42:22.844Z,35.38
2023-04-10T19:44:51.173Z,36.03
2023-04-10T19:47:19.510Z,36.13
2023-04-10T19:49:47.882Z,35.65
2023-04-10T19:52:16.304Z,36.24
2023-04-10T19:54:44.651Z,36.08
2023-04-10T19:57:13.036Z,36.33
2023-04-10T19:59:42.791Z,36.37
2023-04-10T20:02:12.270Z,36.50
2023-04-10T20:04:40.702Z,36.41
2023-04-10T20:07:10.827Z,36.76
2023-04-10T20:09:39.145Z,37.12
2023-04-10T20:12:08.534Z,37.54
2023-04-10T20:14:36.923Z,37.35
2023-04-10T20:17:07.663Z,38.17
2023-04-10T20:19:36.007Z,38.69
2023-04-10T20:22:04.495Z,39.43
2023-04-10T20:24:32.876Z,40.33
2023-04-10T20:27:01.606Z,41.43
2023-04-10T20:29:29.948Z,41.82
2023-04-10T20:31:58.435Z,42.55
2023-04-10T20:34:28.329Z,43.03
2023-04-10T20:36:56.732Z,43.46
2023-04-10T20:39:25.448Z,43.37
2023-04-10T20:41:54.266Z,43.37
2023-04-10T20:44:22.650Z,44.19
2023-04-10T20:46:51.313Z,44.72
2023-04-10T20:49:19.645Z,44.30
2023-04-10T20:51:49.504Z,44.56
2023-04-10T20:54:18.991Z,44.33
2023-04-10T20:56:47.767Z,43.26
2023-04-10T20:59:16.204Z,43.97
2023-04-10T21:01:44.631Z,43.90
2023-04-10T21:04:13.166Z,43.77
2023-04-10T21:06:41.508Z,43.20
2023-04-10T21:09:11.231Z,42.99
2023-04-10T21:11:39.542Z,43.38
2023-04-10T21:14:08.010Z,44.28
2023-04-10T21:16:41.169Z,42.99
2023-04-10T21:19:09.711Z,42.51
2023-04-10T21:21:38.324Z,42.64
2023-04-10T21:24:07.637Z,43.14
2023-04-10T21:26:37.341Z,43.02
2023-04-10T21:29:05.754Z,42.96
2023-04-10T21:31:34.136Z,42.81
2023-04-10T21:34:02.478Z,42.88
2023-04-10T21:36:31.310Z,43.46
2023-04-10T21:38:59.804Z,42.96
2023-04-10T21:41:28.235Z,42.72
2023-04-10T21:44:00.318Z,42.89
2023-04-10T21:46:28.902Z,42.66
2023-04-10T21:48:57.352Z,43.05
2023-04-10T21:51:26.915Z,45.65
2023-04-10T21:53:55.449Z,44.31
2023-04-10T21:56:23.778Z,44.97
2023-04-10T21:58:53.021Z,44.13
2023-04-10T22:01:23.214Z,43.38
2023-04-10T22:03:51.944Z,43.23
2023-04-10T22:06:20.423Z,43.65
2023-04-10T22:08:48.694Z,43.64
2023-04-10T22:11:17.109Z,44.14
2023-04-10T22:13:45.460Z,43.68
2023-04-10T22:16:13.784Z,43.17
2023-04-10T22:18:43.482Z,44.85
2023-04-10T22:21:13.350Z,44.17
2023-04-10T22:23:41.652Z,46.47
2023-04-10T22:26:09.950Z,46.89
2023-04-10T22:28:38.203Z,48.49
2023-04-10T22:31:06.813Z,49.34
2023-04-10T22:33:35.168Z,50.80
2023-04-10T22:36:05.705Z,52.42
2023-04-10T22:38:34.089Z,53.21
2023-04-10T22:41:02.460Z,55.77
2023-04-10T22:43:30.908Z,57.25
2023-04-10T22:45:59.181Z,59.56
2023-04-10T22:48:27.725Z,60.21
2023-04-10T22:50:56.034Z,62.59
2023-04-10T22:53:25.744Z,63.00
2023-04-10T22:55:54.140Z,62.71
2023-04-10T22:58:22.571Z,61.52
2023-04-10T23:00:50.943Z,64.42
2023-04-10T23:03:19.283Z,66.05
2023-04-10T23:05:48.008Z,65.09
2023-04-10T23:08:16.377Z,66.18
2023-04-10T23:10:46.056Z,66.67
2023-04-10T23:13:14.451Z,66.27
2023-04-10T23:15:49.536Z,66.88
2023-04-10T23:18:18.356Z,66.78
2023-04-10T23:20:47.401Z,66.88
2023-04-10T23:23:15.987Z,66.11
2023-04-10T23:25:45.784Z,67.03
2023-04-10T23:28:14.323Z,68.41
2023-04-10T23:30:43.171Z,68.60
2023-04-10T23:33:11.512Z,68.60
2023-04-10T23:35:39.888Z,69.25
2023-04-10T23:38:08.397Z,68.91
2023-04-10T23:40:36.763Z,69.27
2023-04-10T23:43:06.704Z,69.19
2023-04-10T23:45:35.106Z,69.81
2023-04-10T23:48:03.466Z,69.00
2023-04-10T23:50:31.903Z,69.69
2023-04-10T23:53:00.713Z,72.11
2023-04-10T23:55:29.342Z,71.88
2023-04-10T23:57:57.705Z,67.28
